Time;durP1;ratioP1;P1;durP2;ratioP2;P2;SDS_P1;SDS_P2;PMS_P1;PMS_P2;Temp;Humidity;BMP_temperature;BMP_pressure;BME280_temperature;BME280_humidity;BME280_pressure;Samples;Min_cycle;Max_cycle;Signal;HPM_P1;HPM_P2
2022/07/15 00:02:07;;;;;;;3.42;1.27;;;;;;;;;;4981759;28;20089;-65
2022/07/15 00:04:33;;;;;;;8.82;1.40;;;;;;;;;;4974181;28;20038;-65
2022/07/15 00:07:00;;;;;;;4.32;1.17;;;;;;;;;;4973099;28;20030;-66
2022/07/15 00:12:12;;;;;;;7.93;1.30;;;;;;;;;;4972908;28;20185;-66
2022/07/15 00:14:39;;;;;;;3.22;1.20;;;;;;;;;;4991471;28;20073;-65
2022/07/15 00:17:06;;;;;;;6.68;1.38;;;;;;;;;;4978829;28;20489;-65
2022/07/15 00:19:34;;;;;;;3.85;1.30;;;;;;;;;;4971528;28;20093;-65
2022/07/15 00:22:01;;;;;;;3.38;1.20;;;;;;;;;;4978530;28;20482;-65
2022/07/15 00:24:28;;;;;;;4.05;1.30;;;;;;;;;;4972151;28;20393;-64
2022/07/15 00:26:55;;;;;;;4.78;1.23;;;;;;;;;;4980349;28;20058;-65
2022/07/15 00:29:22;;;;;;;3.85;1.33;;;;;;;;;;4981058;28;20050;-65
2022/07/15 00:31:48;;;;;;;4.80;1.38;;;;;;;;;;4975013;28;20559;-66
2022/07/15 00:34:16;;;;;;;7.32;1.30;;;;;;;;;;4972574;28;20042;-66
2022/07/15 00:36:44;;;;;;;4.72;1.48;;;;;;;;;;4971984;28;20061;-66
2022/07/15 00:39:10;;;;;;;3.75;1.35;;;;;;;;;;4974386;28;20129;-65
2022/07/15 00:41:40;;;;;;;8.90;1.70;;;;;;;;;;4972919;28;20047;-65
2022/07/15 00:44:07;;;;;;;8.75;1.40;;;;;;;;;;4972667;28;20046;-67
2022/07/15 00:46:35;;;;;;;4.43;1.40;;;;;;;;;;4970435;28;20093;-66
2022/07/15 00:49:03;;;;;;;4.38;1.42;;;;;;;;;;4972398;28;20039;-66
2022/07/15 00:51:41;;;;;;;5.93;1.30;;;;;;;;;;4971620;28;20492;-66
2022/07/15 00:54:10;;;;;;;4.55;1.38;;;;;;;;;;4972906;28;20088;-66
2022/07/15 00:56:41;;;;;;;4.47;1.40;;;;;;;;;;4974212;28;20116;-66
2022/07/15 00:59:07;;;;;;;4.15;1.63;;;;;;;;;;4971468;28;20117;-66
2022/07/15 01:01:37;;;;;;;3.25;1.00;;;;;;;;;;4972313;28;20108;-65
2022/07/15 01:04:07;;;;;;;6.55;1.38;;;;;;;;;;4971346;28;20733;-65
2022/07/15 01:06:34;;;;;;;5.78;1.38;;;;;;;;;;4970742;28;20038;-66
2022/07/15 01:09:00;;;;;;;5.50;1.50;;;;;;;;;;4973027;28;20101;-65
2022/07/15 01:11:30;;;;;;;3.95;1.42;;;;;;;;;;4971571;28;20035;-66
2022/07/15 01:13:57;;;;;;;7.78;1.50;;;;;;;;;;4971587;28;20047;-66
2022/07/15 01:16:24;;;;;;;4.45;1.20;;;;;;;;;;4971396;28;20066;-66
2022/07/15 01:18:51;;;;;;;4.45;1.15;;;;;;;;;;4972232;28;20183;-65
2022/07/15 01:21:18;;;;;;;3.70;1.10;;;;;;;;;;4999056;28;20127;-64
2022/07/15 01:23:44;;;;;;;4.78;1.30;;;;;;;;;;4971197;28;20054;-65
2022/07/15 01:26:11;;;;;;;4.43;1.23;;;;;;;;;;4969487;28;20042;-64
2022/07/15 01:28:38;;;;;;;6.78;1.60;;;;;;;;;;4969521;28;20453;-64
2022/07/15 01:31:05;;;;;;;3.17;1.17;;;;;;;;;;4973046;28;20039;-64
2022/07/15 01:33:32;;;;;;;3.95;1.02;;;;;;;;;;4971492;28;20448;-64
2022/07/15 01:36:00;;;;;;;2.88;0.90;;;;;;;;;;4972297;28;20042;-64
2022/07/15 01:38:27;;;;;;;4.00;1.15;;;;;;;;;;4970301;28;20050;-64
2022/07/15 01:40:55;;;;;;;8.13;1.08;;;;;;;;;;4971551;28;20049;-64
2022/07/15 01:43:21;;;;;;;3.88;1.20;;;;;;;;;;4971590;28;20141;-64
2022/07/15 01:45:48;;;;;;;5.50;1.10;;;;;;;;;;4974091;28;20080;-64
2022/07/15 01:51:01;;;;;;;4.70;1.10;;;;;;;;;;4975683;28;20411;-64
2022/07/15 01:53:28;;;;;;;5.15;1.08;;;;;;;;;;4973278;28;20042;-64
2022/07/15 01:55:55;;;;;;;4.15;1.13;;;;;;;;;;4971629;28;20076;-64
2022/07/15 01:58:22;;;;;;;4.25;1.10;;;;;;;;;;4971976;28;20049;-64
2022/07/15 02:00:49;;;;;;;4.47;1.25;;;;;;;;;;4972458;28;20038;-64
2022/07/15 02:03:15;;;;;;;5.07;1.27;;;;;;;;;;4972765;28;20042;-64
2022/07/15 02:05:42;;;;;;;5.05;1.20;;;;;;;;;;4971599;28;20514;-65
2022/07/15 02:08:09;;;;;;;4.28;0.98;;;;;;;;;;4971063;28;20739;-64
2022/07/15 02:10:41;;;;;;;7.03;1.60;;;;;;;;;;4971496;28;20034;-64
2022/07/15 02:13:09;;;;;;;3.50;1.10;;;;;;;;;;4971866;28;20035;-64
2022/07/15 02:15:36;;;;;;;4.03;1.20;;;;;;;;;;4971344;28;20051;-64
2022/07/15 02:18:03;;;;;;;6.15;1.60;;;;;;;;;;4971855;28;20042;-65
2022/07/15 02:20:29;;;;;;;4.25;1.70;;;;;;;;;;4971301;28;20038;-65
2022/07/15 02:22:59;;;;;;;5.97;1.27;;;;;;;;;;4971079;28;20431;-63
2022/07/15 02:25:27;;;;;;;6.20;1.40;;;;;;;;;;4972410;28;20042;-63
2022/07/15 02:27:57;;;;;;;5.72;1.52;;;;;;;;;;4987508;28;20045;-65
2022/07/15 02:30:25;;;;;;;6.25;1.38;;;;;;;;;;4971934;28;20097;-64
2022/07/15 02:32:52;;;;;;;5.55;1.45;;;;;;;;;;4970038;28;20097;-64
2022/07/15 02:35:19;;;;;;;8.15;1.77;;;;;;;;;;4970367;28;20231;-64
2022/07/15 02:37:46;;;;;;;4.85;1.35;;;;;;;;;;4989635;28;20038;-63
2022/07/15 02:40:13;;;;;;;6.25;1.55;;;;;;;;;;4989747;28;20045;-64
2022/07/15 02:42:40;;;;;;;7.47;1.80;;;;;;;;;;4989400;28;20087;-63
2022/07/15 02:45:07;;;;;;;4.88;1.63;;;;;;;;;;4990843;28;20045;-64
2022/07/15 02:47:34;;;;;;;8.40;2.00;;;;;;;;;;5000649;28;20105;-64
2022/07/15 02:50:01;;;;;;;8.32;1.70;;;;;;;;;;4990122;28;20042;-63
2022/07/15 02:52:28;;;;;;;10.73;1.67;;;;;;;;;;4990227;28;20052;-64
2022/07/15 02:54:54;;;;;;;9.32;2.10;;;;;;;;;;4990635;28;20465;-64
2022/07/15 02:57:21;;;;;;;6.38;1.80;;;;;;;;;;4990145;28;20115;-65
2022/07/15 02:59:48;;;;;;;10.45;2.10;;;;;;;;;;4979017;28;20372;-66
2022/07/15 03:02:14;;;;;;;7.38;1.88;;;;;;;;;;4974175;28;20098;-67
2022/07/15 03:04:41;;;;;;;6.65;1.38;;;;;;;;;;4970111;28;20065;-67
2022/07/15 03:07:08;;;;;;;5.13;1.50;;;;;;;;;;4970380;28;20182;-66
2022/07/15 03:09:35;;;;;;;6.60;1.58;;;;;;;;;;4970160;28;20864;-66
2022/07/15 03:12:01;;;;;;;10.25;1.63;;;;;;;;;;4970387;28;20065;-66
2022/07/15 03:14:28;;;;;;;7.25;1.30;;;;;;;;;;4973519;28;20066;-64
2022/07/15 03:16:55;;;;;;;5.68;1.15;;;;;;;;;;4969949;28;20038;-66
2022/07/15 03:19:21;;;;;;;6.97;1.60;;;;;;;;;;4969798;28;20496;-65
2022/07/15 03:21:48;;;;;;;7.22;1.63;;;;;;;;;;4969514;28;20746;-66
2022/07/15 03:24:15;;;;;;;8.60;1.48;;;;;;;;;;4970348;28;20058;-67
2022/07/15 03:26:42;;;;;;;6.80;1.50;;;;;;;;;;4969479;28;20512;-66
2022/07/15 03:29:09;;;;;;;6.95;1.40;;;;;;;;;;4996766;28;20038;-66
2022/07/15 03:31:36;;;;;;;10.20;1.40;;;;;;;;;;4970462;28;20537;-66
2022/07/15 03:34:02;;;;;;;7.80;1.98;;;;;;;;;;4968183;28;20450;-65
2022/07/15 03:36:37;;;;;;;8.05;1.77;;;;;;;;;;4969241;28;20037;-66
2022/07/15 03:39:04;;;;;;;8.13;1.40;;;;;;;;;;4971850;28;20291;-65
2022/07/15 03:41:31;;;;;;;8.77;2.40;;;;;;;;;;4993308;28;20074;-67
2022/07/15 03:43:58;;;;;;;9.10;2.28;;;;;;;;;;4970445;28;20039;-65
2022/07/15 03:46:25;;;;;;;5.68;1.35;;;;;;;;;;4984116;28;20046;-65
2022/07/15 03:48:52;;;;;;;6.68;2.50;;;;;;;;;;4971562;28;20042;-66
2022/07/15 03:51:19;;;;;;;8.02;1.92;;;;;;;;;;4975590;28;20558;-67
2022/07/15 03:53:45;;;;;;;8.32;2.08;;;;;;;;;;4975396;28;20046;-67
2022/07/15 03:56:13;;;;;;;6.38;1.88;;;;;;;;;;4978553;28;20038;-65
2022/07/15 03:58:39;;;;;;;8.40;2.10;;;;;;;;;;5004014;28;20104;-65
2022/07/15 04:01:06;;;;;;;12.15;2.15;;;;;;;;;;4981600;28;20046;-67
2022/07/15 04:03:33;;;;;;;8.45;2.00;;;;;;;;;;4974573;28;20077;-65
2022/07/15 04:06:00;;;;;;;9.02;2.00;;;;;;;;;;4973110;28;20930;-66
2022/07/15 04:08:26;;;;;;;7.40;2.13;;;;;;;;;;4973454;28;20046;-66
2022/07/15 04:10:53;;;;;;;9.27;1.98;;;;;;;;;;4973927;28;20049;-65
2022/07/15 04:13:20;;;;;;;6.53;2.00;;;;;;;;;;4974073;28;20356;-65
2022/07/15 04:15:46;;;;;;;8.95;1.98;;;;;;;;;;4980683;28;20048;-66
2022/07/15 04:18:13;;;;;;;7.45;2.10;;;;;;;;;;4972844;28;20049;-66
2022/07/15 04:20:40;;;;;;;12.02;1.90;;;;;;;;;;4973665;28;20042;-66
2022/07/15 04:23:07;;;;;;;6.38;1.90;;;;;;;;;;4972455;28;20082;-67
2022/07/15 04:25:33;;;;;;;7.57;2.05;;;;;;;;;;4971203;28;20038;-66
2022/07/15 04:28:00;;;;;;;5.78;1.70;;;;;;;;;;4972764;28;20037;-66
2022/07/15 04:30:27;;;;;;;8.95;2.47;;;;;;;;;;4971686;28;20094;-66
2022/07/15 04:32:53;;;;;;;12.70;2.80;;;;;;;;;;4972988;28;20049;-66
2022/07/15 04:35:23;;;;;;;6.78;1.90;;;;;;;;;;4973277;28;20172;-67
2022/07/15 04:37:49;;;;;;;9.90;2.05;;;;;;;;;;4971272;28;20038;-65
2022/07/15 04:40:16;;;;;;;13.40;2.83;;;;;;;;;;4974024;28;20114;-66
2022/07/15 04:42:43;;;;;;;14.63;2.53;;;;;;;;;;4973947;28;20043;-68
2022/07/15 04:45:10;;;;;;;10.23;2.20;;;;;;;;;;4988145;28;20053;-66
2022/07/15 04:47:40;;;;;;;11.95;2.40;;;;;;;;;;4983178;28;20052;-64
2022/07/15 04:52:55;;;;;;;11.52;2.88;;;;;;;;;;4979545;28;20118;-65
2022/07/15 04:55:22;;;;;;;10.55;3.05;;;;;;;;;;4985733;28;20042;-66
2022/07/15 04:57:48;;;;;;;12.70;2.80;;;;;;;;;;4972011;28;20039;-66
2022/07/15 05:00:15;;;;;;;14.60;2.88;;;;;;;;;;4999597;28;21744;-64
2022/07/15 05:02:42;;;;;;;8.35;3.05;;;;;;;;;;4973092;28;20488;-65
2022/07/15 05:05:08;;;;;;;13.20;2.85;;;;;;;;;;4971290;28;20049;-65
2022/07/15 05:07:35;;;;;;;15.13;3.35;;;;;;;;;;4972149;28;20057;-66
2022/07/15 05:10:02;;;;;;;10.65;2.70;;;;;;;;;;4972609;28;20043;-65
2022/07/15 05:12:29;;;;;;;12.80;2.90;;;;;;;;;;4971873;28;20050;-65
2022/07/15 05:14:55;;;;;;;11.05;2.80;;;;;;;;;;4972845;28;20073;-65
2022/07/15 05:17:22;;;;;;;12.25;3.00;;;;;;;;;;4992142;28;20073;-65
2022/07/15 05:19:49;;;;;;;7.93;2.40;;;;;;;;;;4986604;28;20455;-65
2022/07/15 05:22:16;;;;;;;9.82;2.85;;;;;;;;;;4978257;28;20712;-65
2022/07/15 05:24:44;;;;;;;9.40;2.38;;;;;;;;;;4969749;28;20066;-65
2022/07/15 05:27:11;;;;;;;7.65;2.60;;;;;;;;;;4971988;28;20093;-65
2022/07/15 05:29:37;;;;;;;9.18;2.50;;;;;;;;;;4972052;28;20788;-65
2022/07/15 05:32:04;;;;;;;9.82;2.38;;;;;;;;;;4965469;28;20047;-65
2022/07/15 05:34:31;;;;;;;13.75;2.83;;;;;;;;;;4970345;28;20094;-65
2022/07/15 05:36:58;;;;;;;14.50;2.47;;;;;;;;;;4973257;28;20149;-66
2022/07/15 05:39:25;;;;;;;8.25;2.10;;;;;;;;;;4969445;28;20502;-64
2022/07/15 05:41:51;;;;;;;8.85;2.33;;;;;;;;;;4970110;28;20435;-64
2022/07/15 05:44:18;;;;;;;10.30;1.95;;;;;;;;;;4972617;28;20909;-65
2022/07/15 05:46:45;;;;;;;6.15;2.25;;;;;;;;;;4971563;28;20046;-65
2022/07/15 05:49:11;;;;;;;8.38;2.28;;;;;;;;;;4992348;28;20041;-64
2022/07/15 05:51:38;;;;;;;8.70;2.08;;;;;;;;;;4980472;28;20953;-64
2022/07/15 05:54:06;;;;;;;10.63;2.40;;;;;;;;;;4972840;28;20057;-66
2022/07/15 05:56:32;;;;;;;10.43;2.20;;;;;;;;;;4970382;28;20035;-64
2022/07/15 05:58:59;;;;;;;9.40;2.53;;;;;;;;;;4970299;28;20439;-65
2022/07/15 06:01:26;;;;;;;11.15;1.98;;;;;;;;;;4970210;28;20038;-64
2022/07/15 06:03:53;;;;;;;15.10;2.67;;;;;;;;;;4972151;28;20100;-64
2022/07/15 06:06:20;;;;;;;13.90;2.40;;;;;;;;;;4970813;28;20047;-64
2022/07/15 06:08:46;;;;;;;13.45;2.78;;;;;;;;;;4969462;28;20043;-64
2022/07/15 06:11:13;;;;;;;8.05;2.22;;;;;;;;;;4972675;28;20054;-64
2022/07/15 06:13:40;;;;;;;15.30;2.88;;;;;;;;;;4970958;28;20047;-63
2022/07/15 06:16:07;;;;;;;7.20;2.33;;;;;;;;;;4973556;28;20046;-63
2022/07/15 06:18:34;;;;;;;11.48;2.25;;;;;;;;;;4972066;28;20038;-63
2022/07/15 06:21:01;;;;;;;8.32;2.13;;;;;;;;;;4970922;28;20510;-64
2022/07/15 06:23:28;;;;;;;6.18;2.20;;;;;;;;;;4970287;28;20411;-64
2022/07/15 06:25:55;;;;;;;10.32;2.28;;;;;;;;;;4979342;28;20043;-64
2022/07/15 06:28:25;;;;;;;5.32;2.35;;;;;;;;;;4971887;28;21791;-64
2022/07/15 06:30:51;;;;;;;10.15;2.50;;;;;;;;;;4971194;28;20039;-64
2022/07/15 06:33:18;;;;;;;8.63;2.20;;;;;;;;;;4971685;28;20567;-64
2022/07/15 06:35:45;;;;;;;9.90;2.28;;;;;;;;;;4970234;28;20050;-64
2022/07/15 06:38:11;;;;;;;6.85;2.00;;;;;;;;;;4973849;28;20869;-64
2022/07/15 06:40:38;;;;;;;8.32;2.42;;;;;;;;;;4971398;28;20572;-64
2022/07/15 06:43:05;;;;;;;6.45;1.88;;;;;;;;;;4973393;28;20057;-64
2022/07/15 06:45:31;;;;;;;11.68;2.58;;;;;;;;;;4981396;28;20145;-65
2022/07/15 06:47:59;;;;;;;10.73;1.85;;;;;;;;;;4969232;28;20042;-66
2022/07/15 06:50:25;;;;;;;11.52;1.95;;;;;;;;;;4998435;28;20034;-66
2022/07/15 06:52:52;;;;;;;6.07;1.80;;;;;;;;;;4990163;28;20138;-65
2022/07/15 06:55:18;;;;;;;11.93;2.00;;;;;;;;;;4978421;28;20080;-65
2022/07/15 06:57:45;;;;;;;10.00;1.92;;;;;;;;;;4970417;28;20039;-65
2022/07/15 07:00:14;;;;;;;12.88;2.28;;;;;;;;;;4972271;28;20053;-66
2022/07/15 07:02:41;;;;;;;8.55;2.28;;;;;;;;;;4963973;28;20068;-65
2022/07/15 07:05:08;;;;;;;7.15;1.95;;;;;;;;;;4982914;28;20053;-67
2022/07/15 07:07:35;;;;;;;13.30;2.13;;;;;;;;;;4971435;28;20035;-65
2022/07/15 07:10:02;;;;;;;8.30;1.92;;;;;;;;;;4970858;28;20157;-64
2022/07/15 07:12:29;;;;;;;12.45;2.15;;;;;;;;;;4970884;28;20432;-65
2022/07/15 07:14:56;;;;;;;7.63;2.05;;;;;;;;;;4970217;28;20034;-65
2022/07/15 07:17:22;;;;;;;6.68;2.05;;;;;;;;;;4970852;28;20070;-65
2022/07/15 07:19:49;;;;;;;7.38;2.05;;;;;;;;;;4972737;28;20038;-66
2022/07/15 07:22:16;;;;;;;8.07;1.85;;;;;;;;;;4997957;28;20077;-63
2022/07/15 07:24:42;;;;;;;10.30;2.20;;;;;;;;;;4963970;28;20064;-65
2022/07/15 07:27:09;;;;;;;7.32;1.80;;;;;;;;;;4974567;28;20047;-66
2022/07/15 07:29:35;;;;;;;10.95;2.03;;;;;;;;;;4973582;28;20930;-66
2022/07/15 07:32:02;;;;;;;7.80;2.13;;;;;;;;;;4974956;28;20489;-65
2022/07/15 07:34:29;;;;;;;8.52;2.17;;;;;;;;;;5001052;28;20105;-65
2022/07/15 07:36:56;;;;;;;7.32;2.40;;;;;;;;;;4969983;28;20191;-65
2022/07/15 07:39:23;;;;;;;8.68;2.08;;;;;;;;;;4991740;28;20045;-65
2022/07/15 07:41:53;;;;;;;12.93;1.80;;;;;;;;;;4974984;28;20054;-65
2022/07/15 07:44:20;;;;;;;8.23;1.95;;;;;;;;;;4975493;28;20038;-64
2022/07/15 07:46:47;;;;;;;6.10;2.00;;;;;;;;;;4979672;28;20549;-65
2022/07/15 07:49:14;;;;;;;11.70;1.85;;;;;;;;;;4979287;28;20034;-65
2022/07/15 07:51:41;;;;;;;6.20;1.70;;;;;;;;;;4973692;28;20049;-65
2022/07/15 07:54:08;;;;;;;5.30;1.70;;;;;;;;;;4983792;28;20034;-66
2022/07/15 07:56:35;;;;;;;7.80;1.85;;;;;;;;;;4976621;28;20049;-65
2022/07/15 07:59:02;;;;;;;6.88;2.00;;;;;;;;;;4979743;28;20037;-65
2022/07/15 08:01:28;;;;;;;6.20;1.88;;;;;;;;;;4977373;28;20035;-65
2022/07/15 08:04:01;;;;;;;5.35;2.00;;;;;;;;;;4976084;28;20061;-64
2022/07/15 08:06:27;;;;;;;8.02;2.10;;;;;;;;;;4975503;28;20103;-66
2022/07/15 08:08:54;;;;;;;4.88;1.40;;;;;;;;;;4974403;28;20126;-65
2022/07/15 08:11:26;;;;;;;5.97;1.83;;;;;;;;;;4975341;28;20038;-65
2022/07/15 08:13:53;;;;;;;4.57;1.48;;;;;;;;;;4983573;28;20054;-65
2022/07/15 08:16:21;;;;;;;6.10;1.60;;;;;;;;;;4976820;28;20043;-65
2022/07/15 08:18:47;;;;;;;5.35;1.60;;;;;;;;;;4992422;28;20111;-65
2022/07/15 08:21:14;;;;;;;8.15;1.77;;;;;;;;;;4993527;28;20503;-65
2022/07/15 08:23:41;;;;;;;6.65;1.58;;;;;;;;;;4992258;28;20897;-65
2022/07/15 08:26:10;;;;;;;3.83;1.50;;;;;;;;;;4993049;28;20054;-65
2022/07/15 08:28:37;;;;;;;4.10;1.40;;;;;;;;;;4992601;28;20042;-65
2022/07/15 08:31:03;;;;;;;10.55;2.85;;;;;;;;;;4993364;28;20038;-65
2022/07/15 08:33:30;;;;;;;7.80;3.28;;;;;;;;;;4992264;28;20038;-64
2022/07/15 08:35:57;;;;;;;9.18;3.13;;;;;;;;;;4993239;28;20034;-64
2022/07/15 08:38:23;;;;;;;7.25;2.90;;;;;;;;;;4992815;28;20066;-65
2022/07/15 08:40:50;;;;;;;6.63;2.97;;;;;;;;;;4993334;28;20097;-64
2022/07/15 08:43:17;;;;;;;10.40;3.58;;;;;;;;;;4994538;28;20152;-64
2022/07/15 08:45:43;;;;;;;5.60;2.53;;;;;;;;;;4992137;28;20869;-64
2022/07/15 08:48:11;;;;;;;8.00;2.35;;;;;;;;;;4991172;28;20385;-64
2022/07/15 08:50:37;;;;;;;4.95;1.77;;;;;;;;;;4991286;28;20522;-64
2022/07/15 08:53:05;;;;;;;7.95;2.20;;;;;;;;;;4991953;28;20034;-64
2022/07/15 08:55:31;;;;;;;8.57;1.90;;;;;;;;;;4990873;28;20376;-65
2022/07/15 08:57:58;;;;;;;4.30;1.88;;;;;;;;;;4994021;28;20061;-65
2022/07/15 09:00:28;;;;;;;4.45;1.80;;;;;;;;;;4992867;28;20045;-65
2022/07/15 09:03:02;;;;;;;6.75;1.77;;;;;;;;;;4993419;28;20050;-64
2022/07/15 09:05:33;;;;;;;4.88;1.73;;;;;;;;;;4992449;28;20033;-65
2022/07/15 09:08:00;;;;;;;3.63;1.50;;;;;;;;;;4991592;28;20424;-65
2022/07/15 09:10:42;;;;;;;3.72;1.75;;;;;;;;;;4990123;28;20044;-65
2022/07/15 09:13:09;;;;;;;8.25;1.60;;;;;;;;;;4992304;28;20153;-65
2022/07/15 09:15:37;;;;;;;6.13;1.67;;;;;;;;;;4991733;28;20042;-65
2022/07/15 09:18:12;;;;;;;5.05;1.55;;;;;;;;;;4986267;28;20714;-65
2022/07/15 09:20:39;;;;;;;3.50;1.38;;;;;;;;;;4972264;28;20066;-65
2022/07/15 09:23:06;;;;;;;3.78;1.25;;;;;;;;;;4971835;28;20054;-65
2022/07/15 09:25:35;;;;;;;3.58;1.33;;;;;;;;;;4971540;28;20042;-65
2022/07/15 09:28:03;;;;;;;3.95;1.58;;;;;;;;;;4972053;28;20136;-65
2022/07/15 09:33:35;;;;;;;4.10;1.60;;;;;;;;;;4973166;28;20056;-65
2022/07/15 09:36:04;;;;;;;4.13;1.70;;;;;;;;;;4989972;28;20041;-65
2022/07/15 09:38:51;;;;;;;3.60;1.45;;;;;;;;;;4991177;28;20039;-65
2022/07/15 09:41:21;;;;;;;4.10;1.48;;;;;;;;;;4991943;28;20047;-65
2022/07/15 09:43:49;;;;;;;5.65;1.38;;;;;;;;;;4992620;28;20050;-65
2022/07/15 09:46:17;;;;;;;4.10;1.40;;;;;;;;;;4976022;28;20068;-65
2022/07/15 09:48:45;;;;;;;6.82;1.60;;;;;;;;;;4970170;28;20046;-65
2022/07/15 09:51:12;;;;;;;5.00;1.23;;;;;;;;;;4971904;28;20038;-65
2022/07/15 09:53:40;;;;;;;4.00;1.70;;;;;;;;;;4971856;28;20069;-65
2022/07/15 09:56:08;;;;;;;4.40;1.48;;;;;;;;;;4972605;28;20046;-66
2022/07/15 09:58:38;;;;;;;4.60;1.80;;;;;;;;;;4970938;28;20134;-66
2022/07/15 10:01:05;;;;;;;4.18;1.70;;;;;;;;;;4972166;28;20461;-66
2022/07/15 10:03:32;;;;;;;5.05;1.67;;;;;;;;;;4971748;28;20051;-65
2022/07/15 10:06:01;;;;;;;3.83;1.65;;;;;;;;;;4973143;28;20042;-65
2022/07/15 10:08:28;;;;;;;3.78;1.38;;;;;;;;;;4969903;28;20527;-65
2022/07/15 10:10:56;;;;;;;4.35;1.65;;;;;;;;;;4972040;28;20451;-65
2022/07/15 10:13:35;;;;;;;5.35;1.77;;;;;;;;;;4992741;28;20522;-64
2022/07/15 10:16:22;;;;;;;4.90;2.00;;;;;;;;;;4973639;28;20175;-65
2022/07/15 10:18:51;;;;;;;3.28;1.40;;;;;;;;;;4979079;28;20046;-65
2022/07/15 10:21:30;;;;;;;7.18;1.83;;;;;;;;;;4971299;28;20578;-65
2022/07/15 10:23:56;;;;;;;4.47;1.70;;;;;;;;;;4971945;28;20066;-65
2022/07/15 10:26:33;;;;;;;3.72;1.67;;;;;;;;;;4970782;28;20102;-65
2022/07/15 10:29:03;;;;;;;4.25;1.55;;;;;;;;;;4972270;28;20046;-66
2022/07/15 10:31:31;;;;;;;4.55;1.42;;;;;;;;;;4971551;28;20042;-65
2022/07/15 10:34:06;;;;;;;4.22;1.60;;;;;;;;;;4971234;28;20668;-65
2022/07/15 10:36:42;;;;;;;4.75;1.58;;;;;;;;;;4969637;28;20050;-65
2022/07/15 10:39:09;;;;;;;3.30;1.35;;;;;;;;;;4970804;28;20668;-65
2022/07/15 10:41:54;;;;;;;4.47;1.83;;;;;;;;;;4969293;28;20054;-65
2022/07/15 10:44:21;;;;;;;4.60;1.88;;;;;;;;;;4973904;28;20348;-65
2022/07/15 10:46:49;;;;;;;5.47;1.83;;;;;;;;;;4970705;28;20049;-65
2022/07/15 10:49:15;;;;;;;6.10;1.90;;;;;;;;;;4972675;28;20042;-65
2022/07/15 10:51:43;;;;;;;6.40;1.67;;;;;;;;;;4970710;28;20544;-64
2022/07/15 10:54:33;;;;;;;4.03;1.63;;;;;;;;;;4972004;28;20055;-64
2022/07/15 10:57:01;;;;;;;5.63;2.05;;;;;;;;;;4990532;28;20043;-65
2022/07/15 10:59:27;;;;;;;4.53;2.00;;;;;;;;;;4994167;28;20042;-64
2022/07/15 11:02:00;;;;;;;4.93;2.05;;;;;;;;;;4995441;28;20940;-64
2022/07/15 11:04:28;;;;;;;10.70;1.90;;;;;;;;;;4995218;28;20184;-65
2022/07/15 11:09:48;;;;;;;11.55;1.90;;;;;;;;;;4993332;28;20064;-65
2022/07/15 11:12:16;;;;;;;8.93;1.92;;;;;;;;;;4994029;28;20052;-65
2022/07/15 11:14:55;;;;;;;7.60;2.22;;;;;;;;;;4994595;28;20044;-65
2022/07/15 11:17:24;;;;;;;6.43;2.15;;;;;;;;;;4996117;28;20734;-65
2022/07/15 11:19:53;;;;;;;5.03;1.90;;;;;;;;;;5006464;28;20084;-65
2022/07/15 11:22:20;;;;;;;6.43;1.70;;;;;;;;;;4978248;28;20058;-65
2022/07/15 11:24:47;;;;;;;4.72;2.13;;;;;;;;;;4976747;28;20091;-65
2022/07/15 11:27:14;;;;;;;6.40;2.03;;;;;;;;;;4975248;28;20399;-65
2022/07/15 11:29:41;;;;;;;9.13;1.98;;;;;;;;;;4974428;28;20129;-65
2022/07/15 11:32:08;;;;;;;5.88;1.95;;;;;;;;;;4978202;28;20515;-65
2022/07/15 11:34:42;;;;;;;8.77;2.15;;;;;;;;;;4974782;28;20411;-64
2022/07/15 11:37:10;;;;;;;7.70;1.80;;;;;;;;;;4974798;28;20455;-64
2022/07/15 11:39:38;;;;;;;5.72;1.83;;;;;;;;;;4975391;28;20034;-65
2022/07/15 11:44:50;;;;;;;7.15;1.85;;;;;;;;;;4981782;28;20045;-62
2022/07/15 11:47:18;;;;;;;4.25;1.73;;;;;;;;;;4975674;28;20038;-64
2022/07/15 11:49:44;;;;;;;5.47;2.03;;;;;;;;;;4975370;28;21170;-64
2022/07/15 11:52:14;;;;;;;8.23;1.90;;;;;;;;;;4973787;28;20050;-63
2022/07/15 11:54:41;;;;;;;7.05;2.00;;;;;;;;;;4976510;28;20195;-62
2022/07/15 11:57:10;;;;;;;13.57;2.28;;;;;;;;;;4975298;28;20089;-63
2022/07/15 11:59:36;;;;;;;6.38;2.17;;;;;;;;;;4979755;28;20051;-63
2022/07/15 12:02:07;;;;;;;8.13;1.95;;;;;;;;;;4974289;28;20066;-62
2022/07/15 12:04:34;;;;;;;7.80;2.05;;;;;;;;;;4974846;28;20031;-62
2022/07/15 12:07:01;;;;;;;8.95;2.25;;;;;;;;;;4974920;28;20042;-63
2022/07/15 12:09:39;;;;;;;5.63;2.10;;;;;;;;;;4975015;28;20050;-62
2022/07/15 12:12:05;;;;;;;7.82;2.25;;;;;;;;;;4975553;28;20051;-62
2022/07/15 12:14:32;;;;;;;7.35;2.88;;;;;;;;;;4976112;28;20450;-65
2022/07/15 12:16:59;;;;;;;6.10;1.80;;;;;;;;;;4978066;28;20041;-66
2022/07/15 12:19:27;;;;;;;10.77;2.38;;;;;;;;;;4976162;28;20034;-65
2022/07/15 12:21:55;;;;;;;11.32;1.98;;;;;;;;;;4975432;28;20641;-66
2022/07/15 12:24:23;;;;;;;5.10;2.00;;;;;;;;;;4973598;28;20050;-66
2022/07/15 12:26:52;;;;;;;9.57;2.10;;;;;;;;;;4981107;28;20042;-66
2022/07/15 12:29:21;;;;;;;5.30;1.95;;;;;;;;;;4974957;28;20042;-67
2022/07/15 12:31:54;;;;;;;4.85;1.70;;;;;;;;;;4972041;28;20069;-66
2022/07/15 12:34:21;;;;;;;5.07;1.70;;;;;;;;;;4974791;28;20125;-66
2022/07/15 12:36:57;;;;;;;4.93;1.77;;;;;;;;;;4973517;28;20046;-66
2022/07/15 12:39:25;;;;;;;8.07;2.00;;;;;;;;;;4973409;28;20049;-66
2022/07/15 12:42:00;;;;;;;10.10;2.10;;;;;;;;;;4973410;28;20465;-67
2022/07/15 12:44:27;;;;;;;7.18;1.88;;;;;;;;;;4974650;28;20074;-63
2022/07/15 12:46:56;;;;;;;8.70;2.08;;;;;;;;;;4975334;28;20049;-59
2022/07/15 12:49:38;;;;;;;11.73;1.95;;;;;;;;;;4971519;28;20050;-66
2022/07/15 12:52:19;;;;;;;9.25;2.05;;;;;;;;;;4971240;28;20176;-67
2022/07/15 12:54:46;;;;;;;16.35;2.70;;;;;;;;;;4970982;28;20034;-66
2022/07/15 12:57:32;;;;;;;10.55;2.65;;;;;;;;;;4973391;28;20046;-67
2022/07/15 13:00:00;;;;;;;10.65;2.42;;;;;;;;;;4971614;28;20880;-66
2022/07/15 13:02:31;;;;;;;9.10;2.10;;;;;;;;;;4971594;28;20129;-67
2022/07/15 13:04:58;;;;;;;13.98;2.45;;;;;;;;;;4973189;28;20046;-67
2022/07/15 13:07:25;;;;;;;7.45;2.22;;;;;;;;;;4973068;28;20042;-67
2022/07/15 13:09:57;;;;;;;7.47;1.95;;;;;;;;;;4972601;28;20043;-67
2022/07/15 13:12:24;;;;;;;9.13;2.17;;;;;;;;;;5000760;28;20160;-60
2022/07/15 13:14:51;;;;;;;7.07;2.58;;;;;;;;;;4968192;28;20136;-67
2022/07/15 13:17:17;;;;;;;6.38;2.28;;;;;;;;;;4989907;28;20406;-67
2022/07/15 13:19:44;;;;;;;6.88;2.38;;;;;;;;;;4972903;28;20060;-67
2022/07/15 13:22:11;;;;;;;5.13;2.08;;;;;;;;;;4971051;28;20629;-67
2022/07/15 13:24:37;;;;;;;5.70;2.00;;;;;;;;;;4972892;28;20068;-67
2022/07/15 13:27:04;;;;;;;4.80;1.77;;;;;;;;;;4974215;28;20038;-67
2022/07/15 13:29:31;;;;;;;6.93;2.00;;;;;;;;;;4973498;28;20043;-68
2022/07/15 13:31:57;;;;;;;8.45;2.00;;;;;;;;;;4971909;28;20084;-66
2022/07/15 13:34:24;;;;;;;10.65;2.30;;;;;;;;;;4972621;28;20042;-67
2022/07/15 13:36:51;;;;;;;11.77;2.10;;;;;;;;;;4974555;28;20376;-67
2022/07/15 13:39:17;;;;;;;8.80;2.22;;;;;;;;;;4972690;28;20097;-66
2022/07/15 13:41:44;;;;;;;8.80;2.05;;;;;;;;;;4973168;28;20052;-66
2022/07/15 13:44:11;;;;;;;8.57;2.08;;;;;;;;;;4976838;28;20226;-66
2022/07/15 13:46:37;;;;;;;10.35;2.20;;;;;;;;;;4973344;28;20038;-66
2022/07/15 13:49:04;;;;;;;9.07;1.98;;;;;;;;;;4972965;28;20050;-66
2022/07/15 13:51:31;;;;;;;8.85;1.90;;;;;;;;;;4971691;28;20074;-66
2022/07/15 13:53:58;;;;;;;8.70;1.65;;;;;;;;;;4971496;28;20495;-66
2022/07/15 13:56:25;;;;;;;9.05;2.28;;;;;;;;;;4971412;28;20046;-66
2022/07/15 13:58:58;;;;;;;10.25;2.22;;;;;;;;;;4973131;28;20149;-66
2022/07/15 14:01:26;;;;;;;6.35;1.88;;;;;;;;;;4973490;28;20039;-68
2022/07/15 14:03:52;;;;;;;4.88;2.03;;;;;;;;;;4974844;28;20061;-64
2022/07/15 14:06:19;;;;;;;5.00;2.20;;;;;;;;;;4975684;28;20035;-67
2022/07/15 14:08:48;;;;;;;8.82;2.40;;;;;;;;;;4970533;28;20085;-66
2022/07/15 14:11:15;;;;;;;7.97;2.50;;;;;;;;;;4987432;28;20129;-67
2022/07/15 14:13:42;;;;;;;12.77;2.15;;;;;;;;;;4972376;28;20172;-67
2022/07/15 14:16:14;;;;;;;9.70;2.25;;;;;;;;;;4976699;28;20150;-66
2022/07/15 14:18:45;;;;;;;4.65;1.90;;;;;;;;;;4979421;28;20074;-67
2022/07/15 14:21:12;;;;;;;5.07;1.85;;;;;;;;;;4973091;28;20035;-66
2022/07/15 14:23:39;;;;;;;6.82;1.90;;;;;;;;;;4971640;28;20077;-66
2022/07/15 14:26:06;;;;;;;7.38;2.30;;;;;;;;;;4973114;28;20050;-67
2022/07/15 14:28:33;;;;;;;11.50;2.45;;;;;;;;;;4970824;28;20049;-67
2022/07/15 14:30:59;;;;;;;8.10;2.10;;;;;;;;;;4972419;28;20035;-67
2022/07/15 14:33:26;;;;;;;4.72;2.20;;;;;;;;;;4970502;28;20085;-67
2022/07/15 14:35:53;;;;;;;5.28;2.00;;;;;;;;;;4987772;28;20484;-67
2022/07/15 14:38:19;;;;;;;7.38;2.28;;;;;;;;;;5002954;28;20132;-67
2022/07/15 14:40:46;;;;;;;8.27;2.30;;;;;;;;;;4971406;28;20027;-67
2022/07/15 14:43:13;;;;;;;5.50;2.05;;;;;;;;;;4972847;28;20053;-66
2022/07/15 14:45:41;;;;;;;5.15;1.73;;;;;;;;;;4998860;28;20502;-66
2022/07/15 14:48:10;;;;;;;7.50;2.40;;;;;;;;;;4972193;28;20053;-66
2022/07/15 14:50:37;;;;;;;8.50;2.08;;;;;;;;;;4970967;28;20041;-67
2022/07/15 14:53:05;;;;;;;4.20;1.80;;;;;;;;;;4972309;28;20041;-67
2022/07/15 14:55:31;;;;;;;8.48;2.13;;;;;;;;;;4972752;28;20139;-67
2022/07/15 14:57:58;;;;;;;5.90;2.20;;;;;;;;;;4973116;28;20041;-67
2022/07/15 15:00:25;;;;;;;6.28;2.15;;;;;;;;;;4973598;28;20061;-67
2022/07/15 15:02:51;;;;;;;8.45;2.30;;;;;;;;;;4976687;28;20074;-68